Time;durP1;ratioP1;P1;durP2;ratioP2;P2;SDS_P1;SDS_P2;PMS_P1;PMS_P2;Temp;Humidity;BMP_temperature;BMP_pressure;BME280_temperature;BME280_humidity;BME280_pressure;Samples;Min_cycle;Max_cycle;Signal;HPM_P1;HPM_P2
2021/09/02 00:02:17;;;;;;;4.80;3.03;;;20.90;63.90;;;;;;4935546;29;20044;-81
2021/09/02 00:04:43;;;;;;;3.97;2.90;;;20.80;63.90;;;;;;4935327;29;20187;-81
2021/09/02 00:07:09;;;;;;;3.75;2.72;;;20.90;64.00;;;;;;4951887;28;20514;-81
2021/09/02 00:09:34;;;;;;;3.75;2.78;;;20.80;63.90;;;;;;4919640;29;20114;-81
2021/09/02 00:12:01;;;;;;;4.25;2.97;;;20.80;64.00;;;;;;4919978;29;20044;-80
2021/09/02 00:14:28;;;;;;;4.45;2.85;;;20.80;64.00;;;;;;4951071;29;20115;-81
2021/09/02 00:16:54;;;;;;;4.93;2.97;;;20.80;64.00;;;;;;4935083;29;20043;-81
2021/09/02 00:19:20;;;;;;;3.70;2.75;;;20.80;64.00;;;;;;4903457;29;20036;-81
2021/09/02 00:21:45;;;;;;;4.72;3.10;;;20.80;64.00;;;;;;4934754;29;20035;-81
2021/09/02 00:24:12;;;;;;;4.38;2.88;;;20.80;64.00;;;;;;4934990;29;20527;-80
2021/09/02 00:26:40;;;;;;;4.15;2.78;;;20.80;64.10;;;;;;4934716;29;20107;-81
2021/09/02 00:29:06;;;;;;;4.78;2.95;;;20.80;64.10;;;;;;4950792;29;20055;-81
2021/09/02 00:31:32;;;;;;;3.67;2.65;;;20.80;64.10;;;;;;4919149;29;20036;-83
2021/09/02 00:33:58;;;;;;;4.35;2.95;;;20.80;64.10;;;;;;4919237;29;20027;-82
2021/09/02 00:36:24;;;;;;;3.88;2.88;;;20.70;64.10;;;;;;4919106;29;20124;-81
2021/09/02 00:38:49;;;;;;;4.53;3.00;;;20.70;64.10;;;;;;4919756;29;20031;-80
2021/09/02 00:41:15;;;;;;;3.83;2.72;;;20.70;64.10;;;;;;4919175;29;20052;-81
2021/09/02 00:43:42;;;;;;;4.35;2.92;;;20.70;64.10;;;;;;4903188;29;20036;-81
2021/09/02 00:46:16;;;;;;;4.82;2.85;;;20.70;64.20;;;;;;4934776;29;20031;-81
2021/09/02 00:48:50;;;;;;;4.18;2.90;;;20.70;64.20;;;;;;4924633;29;20304;-81
2021/09/02 00:51:17;;;;;;;4.38;2.88;;;20.70;64.20;;;;;;4937953;29;20087;-81
2021/09/02 00:53:44;;;;;;;4.35;3.10;;;20.70;64.20;;;;;;4954860;28;20118;-82
2021/09/02 00:56:10;;;;;;;4.10;2.78;;;20.70;64.20;;;;;;4922723;29;20063;-80
2021/09/02 00:58:36;;;;;;;3.92;2.97;;;20.70;64.20;;;;;;4923215;29;20035;-82
2021/09/02 01:01:03;;;;;;;4.00;2.85;;;20.70;64.20;;;;;;4956128;28;20039;-80
2021/09/02 01:03:29;;;;;;;4.13;2.75;;;20.70;64.40;;;;;;4955515;28;20070;-80
2021/09/02 01:05:55;;;;;;;3.97;2.72;;;20.60;64.20;;;;;;4923750;29;20031;-81
2021/09/02 01:08:21;;;;;;;3.60;2.65;;;20.60;64.20;;;;;;4938213;29;20492;-81
2021/09/02 01:10:49;;;;;;;5.15;3.08;;;20.70;64.30;;;;;;4923130;29;20027;-82
2021/09/02 01:13:22;;;;;;;4.05;2.83;;;20.60;64.30;;;;;;4941635;29;20039;-81
2021/09/02 01:15:48;;;;;;;4.78;2.72;;;20.60;64.30;;;;;;4973542;28;20033;-81
2021/09/02 01:18:15;;;;;;;3.78;2.80;;;20.60;64.30;;;;;;4941597;29;20022;-83
2021/09/02 01:20:41;;;;;;;4.90;2.95;;;20.60;64.40;;;;;;4926440;29;20154;-81
2021/09/02 01:23:08;;;;;;;3.47;2.67;;;20.60;64.40;;;;;;4941589;29;20035;-81
2021/09/02 01:25:42;;;;;;;4.63;3.03;;;20.60;64.40;;;;;;4941333;29;20034;-82
2021/09/02 01:28:12;;;;;;;4.20;3.08;;;20.60;64.40;;;;;;4938054;29;20090;-80
2021/09/02 01:30:39;;;;;;;4.05;2.80;;;20.60;64.40;;;;;;4925909;29;20035;-81
2021/09/02 01:33:14;;;;;;;4.20;3.00;;;20.60;64.40;;;;;;4957173;28;20046;-81
2021/09/02 01:35:40;;;;;;;4.70;3.10;;;20.50;64.40;;;;;;4935130;29;20038;-81
2021/09/02 01:38:07;;;;;;;4.00;2.95;;;20.50;64.40;;;;;;4956901;29;20494;-81
2021/09/02 01:40:36;;;;;;;4.03;2.65;;;20.50;64.40;;;;;;4941233;29;20036;-81
2021/09/02 01:43:04;;;;;;;4.60;3.17;;;20.50;64.50;;;;;;4957871;28;20114;-82
2021/09/02 01:45:30;;;;;;;4.65;3.35;;;20.50;64.50;;;;;;4925872;29;20031;-82
2021/09/02 01:47:57;;;;;;;4.10;3.00;;;20.50;64.50;;;;;;4924852;28;20536;-81
2021/09/02 01:50:24;;;;;;;4.20;3.00;;;20.50;64.50;;;;;;4944969;28;20035;-81
2021/09/02 01:52:53;;;;;;;5.90;3.15;;;20.50;64.50;;;;;;4944036;28;20030;-81
2021/09/02 01:55:21;;;;;;;4.43;3.08;;;20.40;64.50;;;;;;4959924;28;20038;-82
2021/09/02 01:57:47;;;;;;;4.28;2.97;;;20.40;64.50;;;;;;4959710;28;20026;-81
2021/09/02 02:00:14;;;;;;;4.40;2.90;;;20.40;64.50;;;;;;4944135;28;20027;-79
2021/09/02 02:02:40;;;;;;;5.13;3.42;;;20.40;64.50;;;;;;4959955;28;20035;-81
2021/09/02 02:05:07;;;;;;;4.80;3.30;;;20.40;64.50;;;;;;4960435;28;20062;-81
2021/09/02 02:07:34;;;;;;;4.55;3.08;;;20.40;64.60;;;;;;4959452;28;20031;-81
2021/09/02 02:10:00;;;;;;;4.22;2.88;;;20.40;64.60;;;;;;4959827;28;20153;-80
2021/09/02 02:12:25;;;;;;;5.72;3.25;;;20.40;64.60;;;;;;4943728;28;20539;-82
2021/09/02 02:14:51;;;;;;;5.55;3.00;;;20.30;64.60;;;;;;4959620;28;20225;-82
2021/09/02 02:17:17;;;;;;;3.92;2.78;;;20.30;64.60;;;;;;4944340;28;20027;-81
2021/09/02 02:19:43;;;;;;;5.00;3.42;;;20.30;64.70;;;;;;4975509;28;20043;-82
2021/09/02 02:22:08;;;;;;;4.63;3.15;;;20.30;64.60;;;;;;4959038;28;20038;-81
2021/09/02 02:24:34;;;;;;;4.47;2.90;;;20.30;64.60;;;;;;4943438;28;20085;-81
2021/09/02 02:27:00;;;;;;;3.92;3.00;;;20.30;64.70;;;;;;4960076;28;20038;-81
2021/09/02 02:29:26;;;;;;;4.50;2.78;;;20.30;64.70;;;;;;4927749;28;20126;-82
2021/09/02 02:31:51;;;;;;;4.45;2.95;;;20.20;64.70;;;;;;4943995;28;20494;-81
2021/09/02 02:34:17;;;;;;;3.85;2.75;;;20.30;64.70;;;;;;4954985;28;20058;-84
2021/09/02 02:36:43;;;;;;;3.92;2.80;;;20.20;64.70;;;;;;4955719;28;20050;-80
2021/09/02 02:39:09;;;;;;;4.55;3.10;;;20.20;64.70;;;;;;4962001;28;20035;-81
2021/09/02 02:41:35;;;;;;;3.60;2.70;;;20.30;64.80;;;;;;4944100;28;20030;-82
2021/09/02 02:44:00;;;;;;;4.50;3.10;;;20.20;64.80;;;;;;4959468;28;20464;-81
2021/09/02 02:46:26;;;;;;;4.60;3.15;;;20.20;64.80;;;;;;4927159;28;20065;-81
2021/09/02 02:48:52;;;;;;;5.03;3.22;;;20.20;64.80;;;;;;4942991;28;20105;-81
2021/09/02 02:51:18;;;;;;;4.43;3.05;;;20.20;64.80;;;;;;4943716;28;20031;-82
2021/09/02 02:53:44;;;;;;;4.50;2.88;;;20.20;64.80;;;;;;4927915;28;20464;-81
2021/09/02 02:56:09;;;;;;;4.82;3.40;;;20.20;64.80;;;;;;4958770;28;20023;-82
2021/09/02 02:58:36;;;;;;;5.40;3.40;;;20.20;64.90;;;;;;4958673;28;20070;-81
2021/09/02 03:01:01;;;;;;;5.30;3.03;;;20.10;64.80;;;;;;4927088;28;20034;-81
2021/09/02 03:03:28;;;;;;;4.82;3.00;;;20.10;64.80;;;;;;4942632;28;20405;-81
2021/09/02 03:05:54;;;;;;;3.78;2.85;;;20.10;64.80;;;;;;4958854;28;20034;-82
2021/09/02 03:08:19;;;;;;;4.20;2.90;;;20.10;64.80;;;;;;4942676;28;20446;-80
2021/09/02 03:10:45;;;;;;;4.00;2.85;;;20.10;64.90;;;;;;4942328;28;20026;-81
2021/09/02 03:13:11;;;;;;;4.03;2.90;;;20.10;64.90;;;;;;4942650;28;20035;-81
2021/09/02 03:15:37;;;;;;;4.30;2.90;;;20.10;64.90;;;;;;4926870;28;20045;-81
2021/09/02 03:18:03;;;;;;;4.88;3.20;;;20.10;64.90;;;;;;4958599;28;20031;-80
2021/09/02 03:20:29;;;;;;;4.22;3.05;;;20.10;64.90;;;;;;4942216;28;20054;-80
2021/09/02 03:22:55;;;;;;;3.65;2.92;;;20.10;65.00;;;;;;4942518;28;20093;-81
2021/09/02 03:25:21;;;;;;;3.72;2.78;;;20.10;65.00;;;;;;4926863;28;20042;-81
2021/09/02 03:27:46;;;;;;;3.88;2.92;;;20.10;65.00;;;;;;4942379;28;20471;-81
2021/09/02 03:30:12;;;;;;;4.53;3.15;;;20.10;65.00;;;;;;4958445;28;20111;-84
2021/09/02 03:32:38;;;;;;;4.20;2.67;;;20.00;65.00;;;;;;4958211;28;20035;-81
2021/09/02 03:35:06;;;;;;;4.35;2.97;;;20.00;65.00;;;;;;4957505;28;20372;-82
2021/09/02 03:37:32;;;;;;;4.78;2.97;;;20.10;65.10;;;;;;4958399;28;20493;-81
2021/09/02 03:39:58;;;;;;;4.07;2.90;;;20.00;65.10;;;;;;4942195;28;20054;-81
2021/09/02 03:42:23;;;;;;;4.63;3.20;;;20.00;65.10;;;;;;4942016;28;20050;-82
2021/09/02 03:44:49;;;;;;;4.70;3.28;;;20.00;65.10;;;;;;4941948;28;20034;-81
2021/09/02 03:47:15;;;;;;;4.47;3.30;;;20.00;65.10;;;;;;4942213;28;20494;-82
2021/09/02 03:49:41;;;;;;;5.03;3.50;;;20.00;65.10;;;;;;4941912;28;20050;-81
2021/09/02 03:52:07;;;;;;;4.70;3.00;;;20.00;65.10;;;;;;4958866;28;20097;-82
2021/09/02 03:54:33;;;;;;;4.60;3.28;;;20.00;65.20;;;;;;4957877;28;20050;-81
2021/09/02 03:56:59;;;;;;;5.93;3.13;;;20.00;65.20;;;;;;4958683;28;20486;-82
2021/09/02 03:59:24;;;;;;;4.55;3.13;;;20.00;65.20;;;;;;4975240;28;20027;-81
2021/09/02 04:01:50;;;;;;;5.05;3.20;;;20.00;65.20;;;;;;4942003;28;20110;-81
2021/09/02 04:04:16;;;;;;;4.05;2.88;;;20.00;65.30;;;;;;4941791;28;20391;-82
2021/09/02 04:06:41;;;;;;;4.88;3.40;;;19.90;65.20;;;;;;4957659;28;20042;-81
2021/09/02 04:09:07;;;;;;;5.22;3.28;;;19.90;65.20;;;;;;4958160;28;20399;-81
2021/09/02 04:11:33;;;;;;;4.82;3.15;;;20.00;65.30;;;;;;4941598;28;20030;-81
2021/09/02 04:13:59;;;;;;;4.57;3.03;;;19.90;65.30;;;;;;4942054;28;20504;-81
2021/09/02 04:16:24;;;;;;;4.00;2.92;;;19.90;65.30;;;;;;4957784;28;20031;-81
2021/09/02 04:18:50;;;;;;;4.72;3.47;;;19.90;65.30;;;;;;4941933;28;20035;-81
2021/09/02 04:21:16;;;;;;;4.63;2.88;;;19.90;66.00;;;;;;4957705;28;20110;-81
2021/09/02 04:23:43;;;;;;;5.05;3.50;;;19.90;65.30;;;;;;4926308;28;20125;-81
2021/09/02 04:26:10;;;;;;;4.78;3.65;;;19.90;65.40;;;;;;4941591;28;20467;-82
2021/09/02 04:28:36;;;;;;;4.57;3.13;;;19.90;65.30;;;;;;4958502;28;20027;-81
2021/09/02 04:31:02;;;;;;;4.78;3.17;;;19.90;65.40;;;;;;4925676;28;20045;-81
2021/09/02 04:33:28;;;;;;;4.60;3.35;;;19.90;65.40;;;;;;4941505;28;20476;-81
2021/09/02 04:35:54;;;;;;;5.07;3.47;;;19.90;65.40;;;;;;4941165;28;20113;-81
2021/09/02 04:38:21;;;;;;;5.25;3.22;;;19.90;65.40;;;;;;4957403;28;20081;-83
2021/09/02 04:40:47;;;;;;;5.32;3.40;;;19.90;65.40;;;;;;4957911;28;20035;-81
2021/09/02 04:43:14;;;;;;;4.65;3.40;;;19.90;66.00;;;;;;4941014;28;20090;-81
2021/09/02 04:45:40;;;;;;;4.38;3.13;;;19.90;65.40;;;;;;4943452;28;20041;-81
2021/09/02 04:48:17;;;;;;;4.65;3.33;;;19.80;65.40;;;;;;4961275;28;20046;-81
2021/09/02 04:50:44;;;;;;;6.10;3.47;;;19.90;65.60;;;;;;4930167;28;20046;-81
2021/09/02 04:53:11;;;;;;;5.13;3.53;;;19.90;65.50;;;;;;4961507;28;20081;-81
2021/09/02 04:55:37;;;;;;;5.55;3.15;;;19.90;65.50;;;;;;4929247;28;20476;-81
2021/09/02 04:58:04;;;;;;;4.65;3.28;;;19.80;65.50;;;;;;4944871;28;20042;-81
2021/09/02 05:00:30;;;;;;;5.13;3.80;;;19.80;65.50;;;;;;4944961;28;20034;-81
2021/09/02 05:02:56;;;;;;;4.97;3.42;;;19.80;65.50;;;;;;4960868;28;20530;-81
2021/09/02 05:05:22;;;;;;;5.07;3.47;;;19.80;65.50;;;;;;4960854;28;20046;-81
2021/09/02 05:07:47;;;;;;;5.20;3.38;;;19.80;65.60;;;;;;4977755;28;20031;-81
2021/09/02 05:10:14;;;;;;;4.93;3.30;;;19.80;65.60;;;;;;4944919;28;20050;-81
2021/09/02 05:12:39;;;;;;;4.38;3.47;;;19.80;65.60;;;;;;4944776;28;20026;-82
2021/09/02 05:15:05;;;;;;;6.03;3.85;;;19.80;65.60;;;;;;4978083;28;20384;-81
2021/09/02 05:17:32;;;;;;;5.97;3.70;;;19.80;65.60;;;;;;4944617;28;20030;-81
2021/09/02 05:19:57;;;;;;;5.18;3.30;;;19.80;65.60;;;;;;4960970;28;20123;-81
2021/09/02 05:22:23;;;;;;;7.13;3.88;;;19.80;65.60;;;;;;4944337;28;20046;-81
2021/09/02 05:24:49;;;;;;;5.72;3.75;;;19.80;65.60;;;;;;4928334;28;20038;-82
2021/09/02 05:27:15;;;;;;;4.60;3.33;;;19.80;65.70;;;;;;4944491;28;20121;-81
2021/09/02 05:29:41;;;;;;;5.15;3.47;;;19.80;65.70;;;;;;4976534;28;20086;-81
2021/09/02 05:32:08;;;;;;;4.65;3.47;;;19.80;65.70;;;;;;4944584;28;20030;-81
2021/09/02 05:34:34;;;;;;;5.00;3.40;;;19.80;65.70;;;;;;4944238;28;20118;-81
2021/09/02 05:36:59;;;;;;;5.50;3.25;;;19.80;65.70;;;;;;4944096;28;20113;-82
2021/09/02 05:39:25;;;;;;;5.95;3.90;;;19.70;65.70;;;;;;4960566;28;20086;-82
2021/09/02 05:41:51;;;;;;;5.30;3.55;;;19.80;65.80;;;;;;4928372;28;20035;-81
2021/09/02 05:44:16;;;;;;;5.57;3.80;;;19.80;65.80;;;;;;4960544;28;20420;-83
2021/09/02 05:46:42;;;;;;;6.53;3.88;;;19.80;65.80;;;;;;4928374;28;20479;-81
2021/09/02 05:49:08;;;;;;;6.47;4.40;;;19.70;65.80;;;;;;4944059;28;20078;-81
2021/09/02 05:51:34;;;;;;;6.00;3.92;;;19.70;65.80;;;;;;4944356;28;20023;-80
2021/09/02 05:54:00;;;;;;;5.45;3.75;;;19.70;65.80;;;;;;4944229;28;20061;-81
2021/09/02 05:56:26;;;;;;;5.20;3.60;;;19.70;65.90;;;;;;4959278;28;20035;-81
2021/09/02 05:58:51;;;;;;;5.47;3.35;;;19.70;65.90;;;;;;4960446;28;20564;-81
2021/09/02 06:01:17;;;;;;;5.50;3.47;;;19.70;66.50;;;;;;4960128;28;20035;-81
2021/09/02 06:03:43;;;;;;;5.82;3.63;;;19.70;65.90;;;;;;4944381;28;20051;-81
2021/09/02 06:06:09;;;;;;;5.18;3.55;;;19.70;66.00;;;;;;4928332;28;20038;-81
2021/09/02 06:08:35;;;;;;;5.75;3.97;;;19.70;65.90;;;;;;4960161;28;20089;-82
2021/09/02 06:11:03;;;;;;;5.80;3.63;;;19.70;65.90;;;;;;4969511;28;20031;-81
2021/09/02 06:13:32;;;;;;;5.85;3.40;;;19.70;65.90;;;;;;4946073;28;20038;-83
2021/09/02 06:16:00;;;;;;;5.90;3.55;;;19.70;66.00;;;;;;4958505;28;20030;-84
2021/09/02 06:18:25;;;;;;;4.93;3.10;;;19.70;66.00;;;;;;4950889;28;20034;-81
2021/09/02 06:20:51;;;;;;;5.35;3.72;;;19.70;66.00;;;;;;4945082;28;20042;-82
2021/09/02 06:23:17;;;;;;;4.80;3.33;;;19.70;66.00;;;;;;4944182;28;20460;-83
2021/09/02 06:25:43;;;;;;;5.45;3.55;;;19.70;66.00;;;;;;4944132;28;20062;-80
2021/09/02 06:28:08;;;;;;;5.60;3.50;;;19.70;66.00;;;;;;4976833;28;20070;-82
2021/09/02 06:30:34;;;;;;;5.07;3.45;;;19.70;66.10;;;;;;4975663;28;20035;-81
2021/09/02 06:33:00;;;;;;;5.53;3.20;;;19.70;66.10;;;;;;4976230;28;20126;-81
2021/09/02 06:35:26;;;;;;;4.85;3.60;;;19.70;66.10;;;;;;4976564;28;20050;-81
2021/09/02 06:37:52;;;;;;;6.18;3.55;;;19.70;66.10;;;;;;4959852;28;20332;-81
2021/09/02 06:40:18;;;;;;;5.40;3.40;;;19.70;66.10;;;;;;4943058;28;20125;-80
2021/09/02 06:42:44;;;;;;;4.57;2.92;;;19.70;66.10;;;;;;4959221;28;20447;-81
2021/09/02 06:45:10;;;;;;;5.32;3.03;;;19.70;66.20;;;;;;4959343;28;20035;-80
2021/09/02 06:47:39;;;;;;;4.65;2.78;;;19.70;66.20;;;;;;4943065;28;20463;-79
2021/09/02 06:50:06;;;;;;;5.85;3.17;;;19.70;66.20;;;;;;4958822;28;20094;-80
2021/09/02 06:52:32;;;;;;;5.03;3.20;;;19.80;66.30;;;;;;4943384;28;20066;-81
2021/09/02 06:54:58;;;;;;;4.70;3.42;;;19.70;66.20;;;;;;4958648;28;20058;-82
2021/09/02 06:57:24;;;;;;;4.40;3.05;;;19.80;66.30;;;;;;4927038;28;20089;-81
2021/09/02 06:59:50;;;;;;;4.55;3.15;;;19.80;66.20;;;;;;4958911;28;20031;-80
2021/09/02 07:02:16;;;;;;;4.72;3.08;;;19.80;66.20;;;;;;4926828;28;20046;-81
2021/09/02 07:04:41;;;;;;;4.68;3.13;;;19.80;66.20;;;;;;4958627;28;20439;-81
2021/09/02 07:07:07;;;;;;;5.22;3.10;;;19.80;66.30;;;;;;4942509;28;20069;-82
2021/09/02 07:09:33;;;;;;;4.38;2.88;;;19.80;66.20;;;;;;4958035;28;20077;-80
2021/09/02 07:11:59;;;;;;;4.72;3.05;;;19.80;66.20;;;;;;4976981;28;20057;-89
2021/09/02 07:14:25;;;;;;;4.97;3.20;;;19.80;66.20;;;;;;4959851;28;20467;-85
2021/09/02 07:16:51;;;;;;;5.10;3.00;;;19.80;66.20;;;;;;4927558;28;20561;-85
2021/09/02 07:19:17;;;;;;;7.03;3.42;;;19.80;66.20;;;;;;4959271;28;20027;-82
2021/09/02 07:21:43;;;;;;;4.68;2.80;;;19.80;66.20;;;;;;4958361;28;20094;-82
2021/09/02 07:24:08;;;;;;;4.22;2.90;;;19.80;66.20;;;;;;4926599;28;20054;-81
2021/09/02 07:26:34;;;;;;;5.13;3.20;;;19.80;66.20;;;;;;4975398;28;20099;-80
2021/09/02 07:29:00;;;;;;;4.93;3.08;;;19.80;66.10;;;;;;4942511;28;20053;-82
2021/09/02 07:31:25;;;;;;;5.30;3.35;;;19.80;66.10;;;;;;4959348;28;20058;-82
2021/09/02 07:33:51;;;;;;;5.07;3.20;;;19.80;66.10;;;;;;4959185;28;20081;-82
2021/09/02 07:36:17;;;;;;;5.07;3.20;;;19.80;66.10;;;;;;4959505;28;20110;-81
2021/09/02 07:38:43;;;;;;;5.03;3.28;;;19.80;66.10;;;;;;4975390;28;20463;-83
2021/09/02 07:41:09;;;;;;;4.53;2.92;;;19.80;66.10;;;;;;4958736;28;20034;-81
2021/09/02 07:43:34;;;;;;;4.82;2.92;;;19.80;66.10;;;;;;4942699;28;20484;-82
2021/09/02 07:46:00;;;;;;;4.45;3.13;;;19.80;66.20;;;;;;4958183;28;20042;-81
2021/09/02 07:48:26;;;;;;;4.88;3.28;;;19.80;66.10;;;;;;4957673;28;20102;-81
2021/09/02 07:50:52;;;;;;;5.53;3.47;;;19.90;66.20;;;;;;4926895;28;20138;-82
2021/09/02 07:53:18;;;;;;;5.50;3.20;;;19.90;66.10;;;;;;4957684;28;20121;-83
2021/09/02 07:55:44;;;;;;;4.82;3.15;;;19.90;66.10;;;;;;4941786;28;20411;-83
2021/09/02 07:58:10;;;;;;;5.22;3.10;;;19.90;66.10;;;;;;4957886;28;20031;-82
2021/09/02 08:00:37;;;;;;;6.15;3.22;;;19.90;66.10;;;;;;4926054;28;20062;-83
2021/09/02 08:03:04;;;;;;;5.10;3.08;;;19.90;66.10;;;;;;4957642;28;20498;-82
2021/09/02 08:05:29;;;;;;;4.53;2.80;;;19.90;66.10;;;;;;4957465;28;20077;-81
2021/09/02 08:07:55;;;;;;;5.85;2.95;;;19.90;66.10;;;;;;4974872;28;20027;-79
2021/09/02 08:10:23;;;;;;;5.00;2.83;;;19.90;66.20;;;;;;4926307;28;20035;-80
2021/09/02 08:12:50;;;;;;;5.35;3.17;;;19.90;66.10;;;;;;4957768;28;20031;-80
2021/09/02 08:15:17;;;;;;;5.20;3.28;;;19.90;66.10;;;;;;4941467;28;20451;-81
2021/09/02 08:17:44;;;;;;;4.20;2.90;;;19.90;66.10;;;;;;4941989;28;20459;-81
2021/09/02 08:20:11;;;;;;;4.07;2.78;;;20.00;66.10;;;;;;4941221;28;20023;-81
2021/09/02 08:22:39;;;;;;;5.78;3.00;;;20.00;66.10;;;;;;4957680;28;20078;-82
2021/09/02 08:25:07;;;;;;;7.05;2.97;;;20.00;66.10;;;;;;4957424;28;20074;-81
2021/09/02 08:27:33;;;;;;;4.68;2.88;;;20.00;66.10;;;;;;4942094;28;20065;-80
2021/09/02 08:29:59;;;;;;;4.97;2.90;;;20.00;66.10;;;;;;4957538;28;20030;-81
2021/09/02 08:32:25;;;;;;;4.70;2.70;;;20.00;66.10;;;;;;4957873;28;20035;-80
2021/09/02 08:34:51;;;;;;;4.70;3.03;;;20.10;66.10;;;;;;4974274;28;20054;-80
2021/09/02 08:37:17;;;;;;;4.63;2.80;;;20.10;66.00;;;;;;4925763;28;20102;-80
2021/09/02 08:39:43;;;;;;;4.50;2.72;;;20.10;66.00;;;;;;4941247;28;20046;-81
2021/09/02 08:42:08;;;;;;;4.82;2.97;;;20.20;66.00;;;;;;4958088;28;20038;-80
2021/09/02 08:44:35;;;;;;;3.90;2.67;;;20.20;65.90;;;;;;4957555;28;20038;-80
2021/09/02 08:47:01;;;;;;;4.82;2.67;;;20.20;65.90;;;;;;4941977;28;20066;-80
2021/09/02 08:49:29;;;;;;;4.60;2.30;;;20.20;65.80;;;;;;4957102;28;20054;-80
2021/09/02 08:51:55;;;;;;;4.72;2.70;;;20.30;65.80;;;;;;4925433;28;20043;-80
2021/09/02 08:54:21;;;;;;;4.30;2.70;;;20.30;65.60;;;;;;4957381;28;20042;-80
2021/09/02 08:56:47;;;;;;;3.97;2.80;;;20.40;65.60;;;;;;4925529;28;20026;-81
2021/09/02 08:59:12;;;;;;;4.68;2.80;;;20.50;65.60;;;;;;4957578;28;20031;-80
2021/09/02 09:01:38;;;;;;;3.60;2.50;;;20.50;65.40;;;;;;4957514;28;20031;-80
2021/09/02 09:04:14;;;;;;;4.85;2.72;;;20.60;65.40;;;;;;4956736;28;20043;-80
2021/09/02 09:06:41;;;;;;;4.15;2.67;;;20.60;65.30;;;;;;4958147;28;20452;-79
2021/09/02 09:09:15;;;;;;;3.85;2.55;;;20.60;65.10;;;;;;4974363;28;20085;-81
2021/09/02 09:11:47;;;;;;;4.25;2.65;;;20.70;65.20;;;;;;4957351;28;20134;-80
2021/09/02 09:14:17;;;;;;;3.60;2.60;;;20.80;65.10;;;;;;4957293;28;20034;-80
2021/09/02 09:16:51;;;;;;;3.10;2.50;;;20.80;64.90;;;;;;4957019;28;20031;-80
2021/09/02 09:19:36;;;;;;;4.07;2.67;;;20.90;64.90;;;;;;4973508;28;20027;-80
2021/09/02 09:22:04;;;;;;;4.60;2.53;;;21.00;64.80;;;;;;4940974;28;20041;-80
2021/09/02 09:24:45;;;;;;;4.00;2.80;;;21.00;64.60;;;;;;4956817;28;20444;-80
2021/09/02 09:27:11;;;;;;;3.97;2.63;;;21.10;64.70;;;;;;4941349;28;20117;-80
2021/09/02 09:29:37;;;;;;;4.82;2.65;;;21.10;64.50;;;;;;4941312;28;20081;-80
2021/09/02 09:32:17;;;;;;;4.75;2.80;;;21.10;64.50;;;;;;4958408;28;20455;-80
2021/09/02 09:34:51;;;;;;;4.70;2.70;;;21.20;64.50;;;;;;4945293;28;20129;-81
2021/09/02 09:37:19;;;;;;;3.90;2.60;;;21.20;64.40;;;;;;4978051;28;20061;-80
2021/09/02 09:39:44;;;;;;;4.65;2.97;;;21.30;64.30;;;;;;4960623;28;20034;-80
2021/09/02 09:42:11;;;;;;;3.92;2.92;;;21.30;64.30;;;;;;4944696;28;20043;-80
2021/09/02 09:44:41;;;;;;;5.57;3.03;;;21.40;64.30;;;;;;4928237;28;20031;-80
2021/09/02 09:47:17;;;;;;;5.00;3.08;;;21.40;64.20;;;;;;4959912;28;20546;-80
2021/09/02 09:49:51;;;;;;;4.18;2.60;;;21.40;64.20;;;;;;4960107;28;20055;-80
2021/09/02 09:52:21;;;;;;;4.53;2.50;;;21.50;64.20;;;;;;4959838;28;20035;-80
2021/09/02 09:54:47;;;;;;;3.60;2.60;;;21.50;64.10;;;;;;4944311;28;20125;-80
2021/09/02 09:57:14;;;;;;;3.55;2.60;;;21.60;64.00;;;;;;4977272;28;20038;-80
2021/09/02 09:59:42;;;;;;;4.40;2.60;;;21.60;64.00;;;;;;4944420;28;20043;-80
2021/09/02 10:02:08;;;;;;;4.30;2.80;;;21.60;64.00;;;;;;4943443;28;20031;-80
2021/09/02 10:04:35;;;;;;;3.90;2.40;;;21.70;63.90;;;;;;4977304;28;20031;-80
2021/09/02 10:07:05;;;;;;;4.20;2.58;;;21.70;63.90;;;;;;4943493;28;20085;-80
2021/09/02 10:09:32;;;;;;;5.05;2.70;;;21.70;64.00;;;;;;4959804;28;20471;-79
2021/09/02 10:12:01;;;;;;;4.38;2.78;;;21.80;63.80;;;;;;4976798;28;20045;-80
2021/09/02 10:14:27;;;;;;;4.50;2.70;;;21.80;63.70;;;;;;4959818;28;20113;-80
2021/09/02 10:16:53;;;;;;;4.15;2.65;;;21.80;63.70;;;;;;4959928;28;20081;-80
2021/09/02 10:19:20;;;;;;;3.60;2.38;;;21.90;63.70;;;;;;4943614;28;20086;-80
2021/09/02 10:21:48;;;;;;;4.22;2.70;;;21.90;63.60;;;;;;4976671;28;20109;-80
2021/09/02 10:24:40;;;;;;;4.60;2.70;;;22.00;63.60;;;;;;4943291;28;20376;-80
2021/09/02 10:27:21;;;;;;;4.40;2.67;;;22.00;63.60;;;;;;4959903;28;20085;-80
2021/09/02 10:29:47;;;;;;;4.32;2.78;;;22.10;63.40;;;;;;4960009;28;20486;-80
2021/09/02 10:32:28;;;;;;;3.50;2.42;;;22.10;63.40;;;;;;4959519;28;20034;-80
2021/09/02 10:35:19;;;;;;;5.57;3.30;;;22.20;63.50;;;;;;4943350;28;20065;-80
2021/09/02 10:37:45;;;;;;;6.72;2.85;;;22.20;63.40;;;;;;4965261;28;20047;-79
2021/09/02 10:40:17;;;;;;;3.42;2.35;;;22.20;63.20;;;;;;4943532;28;20037;-80
2021/09/02 10:42:57;;;;;;;4.55;2.75;;;22.30;63.20;;;;;;4958913;28;20042;-80
2021/09/02 10:45:29;;;;;;;4.60;2.72;;;22.30;63.20;;;;;;4944022;28;20057;-80
2021/09/02 10:48:07;;;;;;;4.68;2.78;;;22.30;63.10;;;;;;4976122;28;20527;-80
2021/09/02 10:50:39;;;;;;;3.50;2.30;;;22.40;63.10;;;;;;4958584;28;20054;-80
2021/09/02 10:53:13;;;;;;;3.85;2.47;;;22.40;63.00;;;;;;4942972;28;20468;-80
2021/09/02 10:55:59;;;;;;;3.42;2.35;;;22.40;62.90;;;;;;4976705;28;20451;-79
2021/09/02 10:58:38;;;;;;;3.58;2.42;;;22.40;63.00;;;;;;4959612;28;20031;-80
2021/09/02 11:01:22;;;;;;;3.25;2.40;;;22.50;63.00;;;;;;4958791;28;20034;-80
2021/09/02 11:03:49;;;;;;;4.45;2.50;;;22.50;63.00;;;;;;4958692;28;20502;-80
2021/09/02 11:06:17;;;;;;;3.83;2.25;;;22.50;62.80;;;;;;4958785;28;20121;-79
2021/09/02 11:08:43;;;;;;;5.15;2.90;;;22.50;62.80;;;;;;4958615;28;20479;-81
2021/09/02 11:11:09;;;;;;;4.55;2.78;;;22.60;62.90;;;;;;4942658;28;20129;-80
2021/09/02 11:13:35;;;;;;;3.58;2.45;;;22.60;62.90;;;;;;4975968;28;20505;-79
2021/09/02 11:16:12;;;;;;;4.05;2.45;;;22.70;62.90;;;;;;4959366;28;20472;-81
2021/09/02 11:18:46;;;;;;;4.40;2.85;;;22.70;63.00;;;;;;4958843;28;20027;-79
2021/09/02 11:21:18;;;;;;;4.10;2.50;;;22.80;63.00;;;;;;4958806;28;20031;-81
2021/09/02 11:23:46;;;;;;;3.85;2.50;;;22.80;62.90;;;;;;4942229;28;20038;-80
2021/09/02 11:26:29;;;;;;;3.63;2.67;;;22.80;62.90;;;;;;4942658;28;20486;-80
2021/09/02 11:28:55;;;;;;;4.00;2.65;;;22.80;62.90;;;;;;4975811;28;20053;-80
2021/09/02 11:31:20;;;;;;;3.80;2.53;;;22.90;62.90;;;;;;4942531;28;20459;-80
2021/09/02 11:33:48;;;;;;;5.15;2.35;;;22.90;62.90;;;;;;4942345;28;20038;-79
2021/09/02 11:36:14;;;;;;;3.85;2.50;;;22.90;62.90;;;;;;4958528;28;20050;-80
2021/09/02 11:38:42;;;;;;;3.65;2.45;;;22.90;62.90;;;;;;4942141;28;20031;-80
2021/09/02 11:41:16;;;;;;;4.40;2.47;;;22.90;62.80;;;;;;4958883;28;20031;-80
2021/09/02 11:43:42;;;;;;;4.15;2.70;;;22.90;62.80;;;;;;4957776;28;20053;-81
2021/09/02 11:46:08;;;;;;;4.40;2.50;;;23.00;62.80;;;;;;4941862;28;20031;-81
2021/09/02 11:48:57;;;;;;;3.70;2.60;;;23.00;62.80;;;;;;4926184;28;20078;-80
2021/09/02 11:51:24;;;;;;;2.67;2.00;;;23.00;63.00;;;;;;4942677;28;20046;-80
2021/09/02 11:54:07;;;;;;;3.13;2.30;;;23.10;62.90;;;;;;4957877;28;20546;-80
2021/09/02 11:56:34;;;;;;;3.35;2.33;;;23.00;63.00;;;;;;4957899;28;20031;-80
2021/09/02 11:59:01;;;;;;;4.90;2.33;;;23.10;62.90;;;;;;4942877;28;20023;-80
2021/09/02 12:01:27;;;;;;;3.38;2.25;;;23.10;63.00;;;;;;4942037;28;20166;-80
2021/09/02 12:03:54;;;;;;;4.18;2.65;;;23.20;63.10;;;;;;4957537;28;20034;-80
2021/09/02 12:06:27;;;;;;;4.10;2.67;;;23.20;63.10;;;;;;4957561;28;20035;-81
2021/09/02 12:08:56;;;;;;;5.03;2.67;;;23.20;63.10;;;;;;4942172;28;20042;-80
2021/09/02 12:11:23;;;;;;;2.97;2.30;;;23.20;63.00;;;;;;4941639;28;20122;-80
2021/09/02 12:13:49;;;;;;;4.88;2.67;;;23.20;62.90;;;;;;4941554;28;20403;-79
2021/09/02 12:16:17;;;;;;;3.75;2.60;;;23.20;62.80;;;;;;4926291;28;20035;-80
2021/09/02 12:18:45;;;;;;;5.00;2.70;;;23.20;62.70;;;;;;4941668;28;20074;-80
2021/09/02 12:21:24;;;;;;;5.05;2.92;;;23.30;62.80;;;;;;4957906;28;20034;-79
2021/09/02 12:23:52;;;;;;;4.93;2.90;;;23.30;62.80;;;;;;4958207;28;20442;-79
2021/09/02 12:26:20;;;;;;;3.72;2.30;;;23.30;62.70;;;;;;4941598;28;20023;-79
2021/09/02 12:28:49;;;;;;;4.07;2.53;;;23.30;62.70;;;;;;4975103;28;20102;-80
2021/09/02 12:31:27;;;;;;;3.85;2.60;;;23.30;62.70;;;;;;4973339;28;20027;-79
2021/09/02 12:34:05;;;;;;;3.05;2.25;;;23.30;62.70;;;;;;4941893;28;20035;-80
2021/09/02 12:36:37;;;;;;;4.80;2.70;;;23.30;62.70;;;;;;4957276;28;20026;-79
2021/09/02 12:39:20;;;;;;;4.47;2.80;;;23.30;62.70;;;;;;4941577;28;20078;-79
2021/09/02 12:42:03;;;;;;;4.45;2.83;;;23.40;62.80;;;;;;4957653;28;20041;-81
2021/09/02 12:44:34;;;;;;;4.32;2.70;;;23.40;62.90;;;;;;4957605;28;20089;-79
2021/09/02 12:47:14;;;;;;;5.10;3.00;;;23.30;62.80;;;;;;4957700;28;20145;-80
2021/09/02 12:49:51;;;;;;;4.28;2.83;;;23.30;63.40;;;;;;4957381;28;20062;-79
2021/09/02 12:52:24;;;;;;;5.68;2.72;;;23.30;62.80;;;;;;4941111;28;20066;-79